sensor_id;sensor_type;location;lat;lon;timestamp;P1;durP1;ratioP1;P2;durP2;ratioP2
16967;SDS011;64862;54.398;10.126;2022-11-03T09:41:39;8.07;;;2.08;;
16967;SDS011;64862;54.398;10.126;2022-11-03T09:44:06;10.50;;;1.95;;
16967;SDS011;64862;54.398;10.126;2022-11-03T09:46:33;10.13;;;1.88;;
16967;SDS011;64862;54.398;10.126;2022-11-03T09:49:00;10.55;;;2.03;;
16967;SDS011;64862;54.398;10.126;2022-11-03T09:51:28;10.88;;;2.00;;
16967;SDS011;64862;54.398;10.126;2022-11-03T09:53:56;10.77;;;1.92;;
16967;SDS011;64862;54.398;10.126;2022-11-03T09:56:27;10.13;;;2.15;;
16967;SDS011;64862;54.398;10.126;2022-11-03T09:58:55;8.75;;;1.90;;
16967;SDS011;64862;54.398;10.126;2022-11-03T10:01:22;12.00;;;2.38;;
16967;SDS011;64862;54.398;10.126;2022-11-03T10:03:49;9.18;;;1.90;;
16967;SDS011;64862;54.398;10.126;2022-11-03T10:06:16;7.57;;;1.80;;
16967;SDS011;64862;54.398;10.126;2022-11-03T10:08:45;13.70;;;2.05;;
16967;SDS011;64862;54.398;10.126;2022-11-03T10:11:13;11.48;;;2.13;;
16967;SDS011;64862;54.398;10.126;2022-11-03T10:13:41;10.27;;;2.05;;
16967;SDS011;64862;54.398;10.126;2022-11-03T10:16:14;11.38;;;2.03;;
16967;SDS011;64862;54.398;10.126;2022-11-03T10:18:42;8.75;;;2.15;;
16967;SDS011;64862;54.398;10.126;2022-11-03T10:21:12;8.02;;;1.77;;
16967;SDS011;64862;54.398;10.126;2022-11-03T10:23:41;12.40;;;2.13;;
16967;SDS011;64862;54.398;10.126;2022-11-03T10:26:08;9.10;;;1.98;;
16967;SDS011;64862;54.398;10.126;2022-11-03T10:28:36;13.20;;;2.30;;
16967;SDS011;64862;54.398;10.126;2022-11-03T10:31:04;9.20;;;1.75;;
16967;SDS011;64862;54.398;10.126;2022-11-03T10:33:51;9.65;;;1.98;;
16967;SDS011;64862;54.398;10.126;2022-11-03T10:36:23;5.90;;;1.75;;
16967;SDS011;64862;54.398;10.126;2022-11-03T10:38:51;10.93;;;2.00;;
16967;SDS011;64862;54.398;10.126;2022-11-03T10:41:19;16.90;;;2.22;;
16967;SDS011;64862;54.398;10.126;2022-11-03T10:43:58;8.52;;;1.90;;
16967;SDS011;64862;54.398;10.126;2022-11-03T10:46:26;10.15;;;2.35;;
16967;SDS011;64862;54.398;10.126;2022-11-03T10:49:01;12.10;;;2.45;;
16967;SDS011;64862;54.398;10.126;2022-11-03T10:51:30;12.30;;;2.22;;
16967;SDS011;64862;54.398;10.126;2022-11-03T10:53:58;12.90;;;2.03;;
16967;SDS011;64862;54.398;10.126;2022-11-03T10:56:26;11.32;;;1.85;;
16967;SDS011;64862;54.398;10.126;2022-11-03T10:58:53;11.55;;;2.20;;
16967;SDS011;64862;54.398;10.126;2022-11-03T11:01:21;9.43;;;1.95;;
16967;SDS011;64862;54.398;10.126;2022-11-03T11:03:48;11.85;;;1.92;;
16967;SDS011;64862;54.398;10.126;2022-11-03T11:06:18;15.88;;;1.85;;
16967;SDS011;64862;54.398;10.126;2022-11-03T11:08:46;15.95;;;2.08;;
16967;SDS011;64862;54.398;10.126;2022-11-03T11:11:15;9.90;;;2.00;;
16967;SDS011;64862;54.398;10.126;2022-11-03T11:13:43;12.07;;;2.10;;
16967;SDS011;64862;54.398;10.126;2022-11-03T11:19:15;9.98;;;2.25;;
16967;SDS011;64862;54.398;10.126;2022-11-03T11:24:57;11.70;;;2.28;;
16967;SDS011;64862;54.398;10.126;2022-11-03T11:34:38;10.18;;;1.92;;
16967;SDS011;64862;54.398;10.126;2022-11-03T11:42:27;10.38;;;1.80;;
16967;SDS011;64862;54.398;10.126;2022-11-03T11:44:55;9.73;;;2.10;;
16967;SDS011;64862;54.398;10.126;2022-11-03T11:47:31;10.90;;;2.17;;
16967;SDS011;64862;54.398;10.126;2022-11-03T11:53:02;9.55;;;2.03;;
16967;SDS011;64862;54.398;10.126;2022-11-03T11:55:39;10.85;;;1.85;;
16967;SDS011;64862;54.398;10.126;2022-11-03T11:58:13;16.42;;;2.38;;
16967;SDS011;64862;54.398;10.126;2022-11-03T12:00:51;12.57;;;2.40;;
16967;SDS011;64862;54.398;10.126;2022-11-03T12:03:21;10.73;;;1.95;;
16967;SDS011;64862;54.398;10.126;2022-11-03T12:05:52;12.35;;;2.22;;
16967;SDS011;64862;54.398;10.126;2022-11-03T12:08:23;13.18;;;2.17;;
16967;SDS011;64862;54.398;10.126;2022-11-03T12:10:54;9.52;;;1.88;;
16967;SDS011;64862;54.398;10.126;2022-11-03T12:13:34;12.20;;;2.00;;
16967;SDS011;64862;54.398;10.126;2022-11-03T12:16:07;11.45;;;2.10;;
16967;SDS011;64862;54.398;10.126;2022-11-03T12:18:35;12.10;;;2.22;;
16967;SDS011;64862;54.398;10.126;2022-11-03T12:21:03;8.77;;;1.85;;
16967;SDS011;64862;54.398;10.126;2022-11-03T12:23:33;12.68;;;2.20;;
16967;SDS011;64862;54.398;10.126;2022-11-03T12:26:02;9.13;;;2.17;;
16967;SDS011;64862;54.398;10.126;2022-11-03T12:28:30;9.35;;;1.92;;
16967;SDS011;64862;54.398;10.126;2022-11-03T12:30:58;10.57;;;2.10;;
16967;SDS011;64862;54.398;10.126;2022-11-03T12:33:26;13.30;;;2.00;;
16967;SDS011;64862;54.398;10.126;2022-11-03T12:35:53;10.55;;;1.92;;
16967;SDS011;64862;54.398;10.126;2022-11-03T12:38:20;12.10;;;2.20;;
16967;SDS011;64862;54.398;10.126;2022-11-03T12:40:48;10.38;;;2.25;;
16967;SDS011;64862;54.398;10.126;2022-11-03T12:43:17;8.95;;;2.10;;
16967;SDS011;64862;54.398;10.126;2022-11-03T12:45:44;9.95;;;2.08;;
16967;SDS011;64862;54.398;10.126;2022-11-03T12:48:11;10.70;;;2.33;;
16967;SDS011;64862;54.398;10.126;2022-11-03T12:50:38;8.63;;;2.00;;
16967;SDS011;64862;54.398;10.126;2022-11-03T12:53:06;9.15;;;2.05;;
16967;SDS011;64862;54.398;10.126;2022-11-03T12:55:33;11.48;;;2.13;;
16967;SDS011;64862;54.398;10.126;2022-11-03T12:58:01;10.27;;;1.88;;
16967;SDS011;64862;54.398;10.126;2022-11-03T13:00:31;17.10;;;2.20;;
16967;SDS011;64862;54.398;10.126;2022-11-03T13:02:58;8.52;;;2.15;;
16967;SDS011;64862;54.398;10.126;2022-11-03T13:05:25;10.15;;;2.30;;
16967;SDS011;64862;54.398;10.126;2022-11-03T13:07:51;11.20;;;2.42;;
16967;SDS011;64862;54.398;10.126;2022-11-03T13:10:18;10.55;;;2.13;;
16967;SDS011;64862;54.398;10.126;2022-11-03T13:12:45;11.02;;;1.95;;
16967;SDS011;64862;54.398;10.126;2022-11-03T13:15:13;10.43;;;2.10;;
16967;SDS011;64862;54.398;10.126;2022-11-03T13:17:41;13.82;;;2.40;;
16967;SDS011;64862;54.398;10.126;2022-11-03T13:20:08;12.20;;;2.03;;
16967;SDS011;64862;54.398;10.126;2022-11-03T13:22:38;10.88;;;2.08;;
16967;SDS011;64862;54.398;10.126;2022-11-03T13:25:06;10.77;;;2.08;;
16967;SDS011;64862;54.398;10.126;2022-11-03T13:27:33;10.60;;;2.42;;
16967;SDS011;64862;54.398;10.126;2022-11-03T13:30:00;9.82;;;2.20;;
16967;SDS011;64862;54.398;10.126;2022-11-03T13:32:28;10.18;;;2.20;;
16967;SDS011;64862;54.398;10.126;2022-11-03T13:34:55;12.88;;;2.10;;
16967;SDS011;64862;54.398;10.126;2022-11-03T13:37:22;10.90;;;2.35;;
16967;SDS011;64862;54.398;10.126;2022-11-03T13:39:49;13.82;;;2.20;;
16967;SDS011;64862;54.398;10.126;2022-11-03T13:42:16;8.82;;;2.08;;
16967;SDS011;64862;54.398;10.126;2022-11-03T13:44:43;11.80;;;2.53;;
16967;SDS011;64862;54.398;10.126;2022-11-03T13:47:10;9.63;;;2.40;;
16967;SDS011;64862;54.398;10.126;2022-11-03T13:49:38;11.70;;;2.22;;
16967;SDS011;64862;54.398;10.126;2022-11-03T13:52:05;9.82;;;1.98;;
16967;SDS011;64862;54.398;10.126;2022-11-03T13:54:32;10.02;;;1.95;;
16967;SDS011;64862;54.398;10.126;2022-11-03T13:56:58;10.93;;;2.13;;
16967;SDS011;64862;54.398;10.126;2022-11-03T13:59:25;13.20;;;2.33;;
16967;SDS011;64862;54.398;10.126;2022-11-03T14:01:52;12.68;;;2.67;;
16967;SDS011;64862;54.398;10.126;2022-11-03T14:04:19;8.45;;;1.98;;
16967;SDS011;64862;54.398;10.126;2022-11-03T14:06:47;9.50;;;2.17;;
16967;SDS011;64862;54.398;10.126;2022-11-03T14:09:14;11.68;;;1.85;;
16967;SDS011;64862;54.398;10.126;2022-11-03T14:11:41;10.32;;;2.00;;
16967;SDS011;64862;54.398;10.126;2022-11-03T14:14:25;12.80;;;2.17;;
16967;SDS011;64862;54.398;10.126;2022-11-03T14:16:52;13.35;;;2.40;;
16967;SDS011;64862;54.398;10.126;2022-11-03T14:19:19;10.55;;;2.25;;
16967;SDS011;64862;54.398;10.126;2022-11-03T14:21:49;10.80;;;2.40;;
16967;SDS011;64862;54.398;10.126;2022-11-03T14:24:16;8.82;;;1.95;;
16967;SDS011;64862;54.398;10.126;2022-11-03T14:26:43;11.30;;;2.05;;
16967;SDS011;64862;54.398;10.126;2022-11-03T14:29:10;9.60;;;2.20;;
16967;SDS011;64862;54.398;10.126;2022-11-03T14:31:37;10.52;;;2.53;;
16967;SDS011;64862;54.398;10.126;2022-11-03T14:34:03;12.48;;;3.08;;
16967;SDS011;64862;54.398;10.126;2022-11-03T14:36:30;14.52;;;2.92;;
16967;SDS011;64862;54.398;10.126;2022-11-03T14:38:59;11.40;;;2.60;;
16967;SDS011;64862;54.398;10.126;2022-11-03T14:41:25;14.38;;;3.00;;
16967;SDS011;64862;54.398;10.126;2022-11-03T14:46:37;12.75;;;2.78;;
16967;SDS011;64862;54.398;10.126;2022-11-03T14:49:03;15.30;;;3.22;;
16967;SDS011;64862;54.398;10.126;2022-11-03T14:51:33;12.10;;;2.65;;
16967;SDS011;64862;54.398;10.126;2022-11-03T14:54:02;12.45;;;2.47;;
16967;SDS011;64862;54.398;10.126;2022-11-03T14:56:28;10.27;;;2.58;;
16967;SDS011;64862;54.398;10.126;2022-11-03T14:58:55;8.75;;;2.25;;
16967;SDS011;64862;54.398;10.126;2022-11-03T15:01:22;10.23;;;2.15;;
16967;SDS011;64862;54.398;10.126;2022-11-03T15:03:49;10.38;;;2.20;;
16967;SDS011;64862;54.398;10.126;2022-11-03T15:06:16;10.55;;;1.80;;
16967;SDS011;64862;54.398;10.126;2022-11-03T15:08:43;11.30;;;2.33;;
16967;SDS011;64862;54.398;10.126;2022-11-03T15:11:12;12.95;;;2.75;;
16967;SDS011;64862;54.398;10.126;2022-11-03T15:13:39;13.80;;;2.20;;
16967;SDS011;64862;54.398;10.126;2022-11-03T15:16:06;11.20;;;2.20;;
16967;SDS011;64862;54.398;10.126;2022-11-03T15:18:33;14.10;;;2.60;;
16967;SDS011;64862;54.398;10.126;2022-11-03T15:21:05;9.10;;;2.28;;
16967;SDS011;64862;54.398;10.126;2022-11-03T15:23:34;11.70;;;2.28;;
16967;SDS011;64862;54.398;10.126;2022-11-03T15:26:01;8.45;;;2.03;;
16967;SDS011;64862;54.398;10.126;2022-11-03T15:28:29;10.57;;;2.28;;
16967;SDS011;64862;54.398;10.126;2022-11-03T15:30:57;11.25;;;2.30;;
16967;SDS011;64862;54.398;10.126;2022-11-03T15:33:24;11.40;;;2.20;;
16967;SDS011;64862;54.398;10.126;2022-11-03T15:35:51;14.02;;;2.15;;
16967;SDS011;64862;54.398;10.126;2022-11-03T15:38:18;13.80;;;2.67;;
16967;SDS011;64862;54.398;10.126;2022-11-03T15:40:45;11.20;;;2.20;;
16967;SDS011;64862;54.398;10.126;2022-11-03T15:43:12;11.85;;;2.35;;
16967;SDS011;64862;54.398;10.126;2022-11-03T15:45:40;12.27;;;2.45;;
16967;SDS011;64862;54.398;10.126;2022-11-03T15:48:07;11.73;;;2.30;;
16967;SDS011;64862;54.398;10.126;2022-11-03T15:50:34;11.52;;;2.40;;
16967;SDS011;64862;54.398;10.126;2022-11-03T15:53:01;11.45;;;2.42;;
16967;SDS011;64862;54.398;10.126;2022-11-03T15:55:28;11.25;;;2.40;;
16967;SDS011;64862;54.398;10.126;2022-11-03T15:57:55;9.52;;;2.67;;
16967;SDS011;64862;54.398;10.126;2022-11-03T16:00:22;10.63;;;2.53;;
16967;SDS011;64862;54.398;10.126;2022-11-03T16:02:50;10.63;;;2.60;;
16967;SDS011;64862;54.398;10.126;2022-11-03T16:05:17;10.98;;;2.47;;
16967;SDS011;64862;54.398;10.126;2022-11-03T16:07:43;12.65;;;2.42;;
16967;SDS011;64862;54.398;10.126;2022-11-03T16:10:12;12.13;;;2.08;;
16967;SDS011;64862;54.398;10.126;2022-11-03T16:12:39;14.10;;;2.38;;
16967;SDS011;64862;54.398;10.126;2022-11-03T16:15:08;8.82;;;2.38;;
16967;SDS011;64862;54.398;10.126;2022-11-03T16:17:35;9.73;;;2.45;;
16967;SDS011;64862;54.398;10.126;2022-11-03T16:20:04;12.45;;;2.35;;
16967;SDS011;64862;54.398;10.126;2022-11-03T16:22:34;13.57;;;2.42;;
16967;SDS011;64862;54.398;10.126;2022-11-03T16:25:01;10.60;;;2.25;;
16967;SDS011;64862;54.398;10.126;2022-11-03T16:27:28;11.38;;;2.47;;
16967;SDS011;64862;54.398;10.126;2022-11-03T16:29:55;9.75;;;2.50;;
16967;SDS011;64862;54.398;10.126;2022-11-03T16:32:22;9.15;;;2.15;;
16967;SDS011;64862;54.398;10.126;2022-11-03T16:34:49;10.63;;;2.10;;
16967;SDS011;64862;54.398;10.126;2022-11-03T16:37:17;9.48;;;2.30;;
16967;SDS011;64862;54.398;10.126;2022-11-03T16:39:44;8.57;;;2.00;;
16967;SDS011;64862;54.398;10.126;2022-11-03T16:42:11;11.63;;;2.65;;
16967;SDS011;64862;54.398;10.126;2022-11-03T16:44:38;8.80;;;2.35;;
16967;SDS011;64862;54.398;10.126;2022-11-03T16:47:05;8.18;;;2.25;;
16967;SDS011;64862;54.398;10.126;2022-11-03T16:49:31;9.63;;;2.15;;
16967;SDS011;64862;54.398;10.126;2022-11-03T16:51:59;15.40;;;3.50;;
16967;SDS011;64862;54.398;10.126;2022-11-03T16:54:27;13.32;;;2.75;;
16967;SDS011;64862;54.398;10.126;2022-11-03T16:56:54;10.20;;;2.53;;
16967;SDS011;64862;54.398;10.126;2022-11-03T16:59:21;10.90;;;2.60;;
16967;SDS011;64862;54.398;10.126;2022-11-03T17:01:50;10.77;;;2.70;;
16967;SDS011;64862;54.398;10.126;2022-11-03T17:04:17;11.23;;;2.47;;
16967;SDS011;64862;54.398;10.126;2022-11-03T17:06:44;14.57;;;3.10;;
16967;SDS011;64862;54.398;10.126;2022-11-03T17:09:11;11.95;;;2.78;;
16967;SDS011;64862;54.398;10.126;2022-11-03T17:11:39;15.35;;;2.80;;
16967;SDS011;64862;54.398;10.126;2022-11-03T17:14:07;11.25;;;3.00;;
16967;SDS011;64862;54.398;10.126;2022-11-03T17:16:37;12.85;;;2.92;;
16967;SDS011;64862;54.398;10.126;2022-11-03T17:19:06;11.10;;;2.90;;
16967;SDS011;64862;54.398;10.126;2022-11-03T17:21:36;10.35;;;2.55;;
16967;SDS011;64862;54.398;10.126;2022-11-03T17:24:03;10.20;;;2.97;;
16967;SDS011;64862;54.398;10.126;2022-11-03T17:26:32;10.93;;;2.88;;
16967;SDS011;64862;54.398;10.126;2022-11-03T17:29:09;14.40;;;2.80;;
16967;SDS011;64862;54.398;10.126;2022-11-03T17:31:40;11.07;;;3.15;;
16967;SDS011;64862;54.398;10.126;2022-11-03T17:34:07;10.77;;;2.55;;
16967;SDS011;64862;54.398;10.126;2022-11-03T17:36:36;10.07;;;2.95;;
16967;SDS011;64862;54.398;10.126;2022-11-03T17:39:03;12.55;;;3.00;;
16967;SDS011;64862;54.398;10.126;2022-11-03T17:41:30;11.18;;;3.40;;
16967;SDS011;64862;54.398;10.126;2022-11-03T17:43:57;9.52;;;3.08;;
16967;SDS011;64862;54.398;10.126;2022-11-03T17:46:25;9.32;;;2.72;;
16967;SDS011;64862;54.398;10.126;2022-11-03T17:48:52;20.08;;;3.45;;
16967;SDS011;64862;54.398;10.126;2022-11-03T17:51:19;13.98;;;3.55;;
16967;SDS011;64862;54.398;10.126;2022-11-03T17:53:47;12.38;;;3.17;;
16967;SDS011;64862;54.398;10.126;2022-11-03T17:56:15;14.82;;;3.17;;
16967;SDS011;64862;54.398;10.126;2022-11-03T17:58:43;11.95;;;3.15;;
16967;SDS011;64862;54.398;10.126;2022-11-03T18:01:10;10.85;;;3.03;;
16967;SDS011;64862;54.398;10.126;2022-11-03T18:03:43;10.90;;;2.83;;
16967;SDS011;64862;54.398;10.126;2022-11-03T18:06:11;10.73;;;3.13;;
16967;SDS011;64862;54.398;10.126;2022-11-03T18:08:43;11.40;;;2.65;;
16967;SDS011;64862;54.398;10.126;2022-11-03T18:11:10;11.13;;;3.13;;
16967;SDS011;64862;54.398;10.126;2022-11-03T18:13:59;8.57;;;2.50;;
16967;SDS011;64862;54.398;10.126;2022-11-03T18:16:26;10.98;;;2.60;;
16967;SDS011;64862;54.398;10.126;2022-11-03T18:18:55;11.70;;;2.92;;
16967;SDS011;64862;54.398;10.126;2022-11-03T18:21:22;8.52;;;2.90;;
16967;SDS011;64862;54.398;10.126;2022-11-03T18:23:49;11.82;;;3.03;;
16967;SDS011;64862;54.398;10.126;2022-11-03T18:26:16;10.43;;;2.70;;
16967;SDS011;64862;54.398;10.126;2022-11-03T18:28:48;12.70;;;3.13;;
16967;SDS011;64862;54.398;10.126;2022-11-03T18:31:18;14.30;;;2.83;;
16967;SDS011;64862;54.398;10.126;2022-11-03T18:33:47;8.43;;;2.88;;
16967;SDS011;64862;54.398;10.126;2022-11-03T18:36:15;11.45;;;2.90;;
16967;SDS011;64862;54.398;10.126;2022-11-03T18:38:43;12.40;;;2.85;;
16967;SDS011;64862;54.398;10.126;2022-11-03T18:41:11;10.95;;;2.72;;
16967;SDS011;64862;54.398;10.126;2022-11-03T18:43:53;7.97;;;2.50;;
16967;SDS011;64862;54.398;10.126;2022-11-03T18:46:20;11.93;;;2.75;;
16967;SDS011;64862;54.398;10.126;2022-11-03T18:48:46;11.55;;;2.95;;
16967;SDS011;64862;54.398;10.126;2022-11-03T18:51:13;11.13;;;2.67;;
16967;SDS011;64862;54.398;10.126;2022-11-03T18:53:44;10.02;;;2.70;;
16967;SDS011;64862;54.398;10.126;2022-11-03T18:56:11;10.52;;;2.88;;
16967;SDS011;64862;54.398;10.126;2022-11-03T18:58:40;13.65;;;2.97;;
16967;SDS011;64862;54.398;10.126;2022-11-03T19:01:07;10.73;;;3.00;;
16967;SDS011;64862;54.398;10.126;2022-11-03T19:03:37;11.05;;;2.25;;
16967;SDS011;64862;54.398;10.126;2022-11-03T19:06:05;9.55;;;2.80;;
16967;SDS011;64862;54.398;10.126;2022-11-03T19:08:35;12.50;;;3.00;;
16967;SDS011;64862;54.398;10.126;2022-11-03T19:11:02;10.38;;;2.95;;
16967;SDS011;64862;54.398;10.126;2022-11-03T19:13:30;9.07;;;2.90;;
16967;SDS011;64862;54.398;10.126;2022-11-03T19:16:01;9.05;;;2.72;;
16967;SDS011;64862;54.398;10.126;2022-11-03T19:18:34;12.55;;;3.05;;
16967;SDS011;64862;54.398;10.126;2022-11-03T19:21:04;11.95;;;2.80;;
16967;SDS011;64862;54.398;10.126;2022-11-03T19:23:36;9.15;;;2.58;;
16967;SDS011;64862;54.398;10.126;2022-11-03T19:26:03;12.02;;;2.50;;
16967;SDS011;64862;54.398;10.126;2022-11-03T19:28:30;8.77;;;2.80;;
16967;SDS011;64862;54.398;10.126;2022-11-03T19:30:58;8.38;;;2.22;;
16967;SDS011;64862;54.398;10.126;2022-11-03T19:33:28;9.75;;;2.45;;
16967;SDS011;64862;54.398;10.126;2022-11-03T19:35:56;10.52;;;2.13;;
16967;SDS011;64862;54.398;10.126;2022-11-03T19:38:23;8.25;;;2.22;;
16967;SDS011;64862;54.398;10.126;2022-11-03T19:40:52;10.93;;;3.25;;
16967;SDS011;64862;54.398;10.126;2022-11-03T19:43:36;10.73;;;2.67;;
16967;SDS011;64862;54.398;10.126;2022-11-03T19:46:03;9.57;;;2.50;;
16967;SDS011;64862;54.398;10.126;2022-11-03T19:48:30;7.00;;;2.30;;
16967;SDS011;64862;54.398;10.126;2022-11-03T19:50:59;7.00;;;2.25;;
16967;SDS011;64862;54.398;10.126;2022-11-03T19:53:33;10.52;;;2.83;;
16967;SDS011;64862;54.398;10.126;2022-11-03T19:56:03;12.82;;;3.35;;
16967;SDS011;64862;54.398;10.126;2022-11-03T19:58:30;10.07;;;2.88;;
16967;SDS011;64862;54.398;10.126;2022-11-03T20:00:57;12.40;;;2.58;;
16967;SDS011;64862;54.398;10.126;2022-11-03T20:03:24;8.73;;;2.17;;
16967;SDS011;64862;54.398;10.126;2022-11-03T20:05:52;9.02;;;2.45;;
16967;SDS011;64862;54.398;10.126;2022-11-03T20:08:22;11.02;;;2.80;;
16967;SDS011;64862;54.398;10.126;2022-11-03T20:10:50;12.05;;;2.60;;
16967;SDS011;64862;54.398;10.126;2022-11-03T20:13:19;9.35;;;2.20;;
16967;SDS011;64862;54.398;10.126;2022-11-03T20:15:48;10.38;;;2.33;;
16967;SDS011;64862;54.398;10.126;2022-11-03T20:18:16;9.18;;;2.30;;
16967;SDS011;64862;54.398;10.126;2022-11-03T20:20:43;12.68;;;2.72;;
16967;SDS011;64862;54.398;10.126;2022-11-03T20:23:17;8.90;;;2.70;;
16967;SDS011;64862;54.398;10.126;2022-11-03T20:25:48;12.70;;;2.67;;
16967;SDS011;64862;54.398;10.126;2022-11-03T20:28:16;9.13;;;2.50;;
16967;SDS011;64862;54.398;10.126;2022-11-03T20:30:46;7.50;;;2.40;;
16967;SDS011;64862;54.398;10.126;2022-11-03T20:33:13;11.68;;;2.63;;
16967;SDS011;64862;54.398;10.126;2022-11-03T20:35:41;9.38;;;2.20;;
16967;SDS011;64862;54.398;10.126;2022-11-03T20:38:09;8.70;;;2.80;;
16967;SDS011;64862;54.398;10.126;2022-11-03T20:40:38;10.52;;;2.58;;
16967;SDS011;64862;54.398;10.126;2022-11-03T20:43:06;11.32;;;2.42;;
16967;SDS011;64862;54.398;10.126;2022-11-03T20:45:42;9.93;;;2.70;;
16967;SDS011;64862;54.398;10.126;2022-11-03T20:48:09;8.32;;;2.33;;
16967;SDS011;64862;54.398;10.126;2022-11-03T20:50:37;10.32;;;2.67;;
16967;SDS011;64862;54.398;10.126;2022-11-03T20:53:07;11.27;;;2.70;;
16967;SDS011;64862;54.398;10.126;2022-11-03T20:55:38;8.02;;;2.53;;
16967;SDS011;64862;54.398;10.126;2022-11-03T20:58:07;11.45;;;3.00;;
16967;SDS011;64862;54.398;10.126;2022-11-03T21:00:40;9.68;;;2.70;;
16967;SDS011;64862;54.398;10.126;2022-11-03T21:03:16;10.07;;;2.95;;
16967;SDS011;64862;54.398;10.126;2022-11-03T21:05:44;8.93;;;2.50;;
16967;SDS011;64862;54.398;10.126;2022-11-03T21:08:11;7.38;;;2.10;;
16967;SDS011;64862;54.398;10.126;2022-11-03T21:10:39;7.72;;;2.33;;
16967;SDS011;64862;54.398;10.126;2022-11-03T21:13:13;9.63;;;2.83;;
16967;SDS011;64862;54.398;10.126;2022-11-03T21:15:41;13.45;;;3.00;;
16967;SDS011;64862;54.398;10.126;2022-11-03T21:18:27;8.55;;;2.40;;
16967;SDS011;64862;54.398;10.126;2022-11-03T21:21:26;9.38;;;2.78;;
16967;SDS011;64862;54.398;10.126;2022-11-03T21:23:53;8.82;;;2.53;;
16967;SDS011;64862;54.398;10.126;2022-11-03T21:26:20;8.55;;;2.28;;
16967;SDS011;64862;54.398;10.126;2022-11-03T21:28:47;10.07;;;2.90;;
16967;SDS011;64862;54.398;10.126;2022-11-03T21:31:14;8.80;;;2.42;;
16967;SDS011;64862;54.398;10.126;2022-11-03T21:33:42;7.40;;;2.33;;
16967;SDS011;64862;54.398;10.126;2022-11-03T21:36:13;10.35;;;2.55;;
16967;SDS011;64862;54.398;10.126;2022-11-03T21:38:40;11.60;;;2.50;;
16967;SDS011;64862;54.398;10.126;2022-11-03T21:41:06;9.38;;;2.65;;
16967;SDS011;64862;54.398;10.126;2022-11-03T21:43:50;9.02;;;2.70;;
16967;SDS011;64862;54.398;10.126;2022-11-03T21:46:35;12.35;;;2.60;;
16967;SDS011;64862;54.398;10.126;2022-11-03T21:49:06;9.23;;;2.50;;
16967;SDS011;64862;54.398;10.126;2022-11-03T21:51:53;8.52;;;2.40;;
16967;SDS011;64862;54.398;10.126;2022-11-03T21:54:20;10.52;;;2.50;;
16967;SDS011;64862;54.398;10.126;2022-11-03T21:56:46;9.13;;;2.88;;
16967;SDS011;64862;54.398;10.126;2022-11-03T21:59:13;9.45;;;2.90;;
16967;SDS011;64862;54.398;10.126;2022-11-03T22:01:40;11.32;;;2.75;;
16967;SDS011;64862;54.398;10.126;2022-11-03T22:04:08;8.75;;;2.70;;
16967;SDS011;64862;54.398;10.126;2022-11-03T22:06:35;9.82;;;2.60;;
16967;SDS011;64862;54.398;10.126;2022-11-03T22:09:02;8.00;;;2.60;;
16967;SDS011;64862;54.398;10.126;2022-11-03T22:11:29;9.20;;;2.60;;
16967;SDS011;64862;54.398;10.126;2022-11-03T22:13:57;10.10;;;2.60;;
16967;SDS011;64862;54.398;10.126;2022-11-03T22:16:25;9.02;;;2.83;;
16967;SDS011;64862;54.398;10.126;2022-11-03T22:19:05;11.30;;;2.90;;
16967;SDS011;64862;54.398;10.126;2022-11-03T22:21:53;8.05;;;2.17;;
16967;SDS011;64862;54.398;10.126;2022-11-03T22:24:37;10.13;;;3.05;;
16967;SDS011;64862;54.398;10.126;2022-11-03T22:27:25;9.15;;;2.63;;
16967;SDS011;64862;54.398;10.126;2022-11-03T22:29:55;13.75;;;2.88;;
16967;SDS011;64862;54.398;10.126;2022-11-03T22:32:40;9.27;;;2.80;;
16967;SDS011;64862;54.398;10.126;2022-11-03T22:35:07;9.32;;;2.80;;
16967;SDS011;64862;54.398;10.126;2022-11-03T22:38:01;9.98;;;2.78;;
16967;SDS011;64862;54.398;10.126;2022-11-03T22:40:29;6.30;;;2.60;;
16967;SDS011;64862;54.398;10.126;2022-11-03T22:43:14;9.40;;;2.90;;
16967;SDS011;64862;54.398;10.126;2022-11-03T22:45:59;10.18;;;2.58;;
16967;SDS011;64862;54.398;10.126;2022-11-03T22:48:26;11.38;;;3.08;;
16967;SDS011;64862;54.398;10.126;2022-11-03T22:50:56;8.50;;;2.63;;
16967;SDS011;64862;54.398;10.126;2022-11-03T22:53:26;10.05;;;2.55;;
16967;SDS011;64862;54.398;10.126;2022-11-03T22:56:12;6.55;;;2.70;;
16967;SDS011;64862;54.398;10.126;2022-11-03T22:58:39;10.43;;;2.90;;
16967;SDS011;64862;54.398;10.126;2022-11-03T23:01:08;10.98;;;3.15;;
16967;SDS011;64862;54.398;10.126;2022-11-03T23:03:37;7.35;;;2.70;;
16967;SDS011;64862;54.398;10.126;2022-11-03T23:06:05;8.90;;;2.60;;
16967;SDS011;64862;54.398;10.126;2022-11-03T23:08:35;7.68;;;2.55;;
16967;SDS011;64862;54.398;10.126;2022-11-03T23:11:07;11.88;;;3.00;;
16967;SDS011;64862;54.398;10.126;2022-11-03T23:13:40;10.00;;;2.92;;
16967;SDS011;64862;54.398;10.126;2022-11-03T23:16:12;8.70;;;2.78;;
16967;SDS011;64862;54.398;10.126;2022-11-03T23:18:40;11.45;;;3.10;;
16967;SDS011;64862;54.398;10.126;2022-11-03T23:21:25;11.05;;;3.10;;
16967;SDS011;64862;54.398;10.126;2022-11-03T23:23:54;10.40;;;2.88;;
16967;SDS011;64862;54.398;10.126;2022-11-03T23:26:39;13.48;;;3.20;;
16967;SDS011;64862;54.398;10.126;2022-11-03T23:29:07;11.57;;;2.85;;
16967;SDS011;64862;54.398;10.126;2022-11-03T23:31:37;9.35;;;2.70;;
16967;SDS011;64862;54.398;10.126;2022-11-03T23:34:05;9.20;;;2.85;;
16967;SDS011;64862;54.398;10.126;2022-11-03T23:36:33;10.57;;;3.00;;
16967;SDS011;64862;54.398;10.126;2022-11-03T23:39:02;10.88;;;3.03;;
16967;SDS011;64862;54.398;10.126;2022-11-03T23:41:29;8.35;;;2.67;;
16967;SDS011;64862;54.398;10.126;2022-11-03T23:43:57;12.05;;;3.15;;
16967;SDS011;64862;54.398;10.126;2022-11-03T23:46:24;7.50;;;3.00;;
16967;SDS011;64862;54.398;10.126;2022-11-03T23:49:13;11.13;;;3.05;;
16967;SDS011;64862;54.398;10.126;2022-11-03T23:51:40;11.25;;;2.97;;
16967;SDS011;64862;54.398;10.126;2022-11-03T23:54:09;10.15;;;3.15;;
16967;SDS011;64862;54.398;10.126;2022-11-03T23:56:37;8.98;;;2.80;;
16967;SDS011;64862;54.398;10.126;2022-11-03T23:59:22;8.90;;;2.95;;
